www . g i u s e p p e r o s a t i . n e t
BRUNELLO  CROSSING
Domenica 11 febbraio 2018
MONTALCINO
KM 13    D+ 480 m
ORDINE D'ARRIVO
In grassetto i primi di categoria
ASSOL. M / F CATG. ATLETA SOCIETA' TEMPO MIN / Km
1 1 masch
1 C m
FOIS CHRISTIAN 1969 ASD ATLETICA COSTA D'ARGENTO 00 58 00 04:27
2 2 masch
1 B m
CARDUCCI RICCARDO 1982 CIRCOLO RICREATIVO SOLVAY 01 01 34 04:44
3 3 masch 2 B m CHELI LUIGI 1983 A.S.D. TEAM MARATHON BIKE 01 02 39 04:49
4 4 masch 3 B m CUCCO ROBERTO 1982 A.S.D. S.P. TORRE DEL MANGIA 01 04 04 04:55
5 5 masch 1 A m PARISSI LAPO 1993 A.S.D. POL. CHIANCIANO 01 04 13 04:56
6 6 masch 4 B m TONDINI CLAUDIO 1983 COOP SPORTIVA DIL. YMCA 01 04 24 04:57
7 7 masch 2 C m LACADI PAOLI GIACOMO 1974 A.S.D. ATL. MARCIATORI MUGELLO 01 05 27 05:02
8 8 masch 3 C m REGINA FRANCESCO 1975 A.S.D. SIENARUNNERS 01 06 02 05:04
9 9 masch 4 C m MAINARDI LUCA 1978 RUN CARD 01 06 19 05:06
10 10 masch 5 C m BIAGIANTI ANDREA 1978 LIBERO 01 06 28 05:06
11 11 masch 5 B m PARRINI FRANCESCO 1980 A.S.C.D. SILVANO FEDI 01 07 27 05:11
12 12 masch 6 B m DONDOLINI SAMUELE 1985 LIBERO 01 07 36 05:11
13 13 masch 6 C m MASONI ALESSIO 1973 ATL.SANGIOVANNESE 1967 01 08 58 05:18
14 14 masch 7 C m RENZONI FRANCESCO 1974 PODISTICA IL CAMPINO 01 09 04 05:18
15 15 masch 8 C m SCALZO ANTONIO 1971 A.S.D.LE ANCELLE 01 10 11 05:23
16 16 masch 9 C m DRAGONI BRUNO 1971 A.S.D. TEAM MARATHON BIKE 01 10 30 05:25
17 17 masch 7 B m LONGHI EMANUELE 1981 LIBERO 01 10 47 05:26
18 18 masch 8 B m LANDINI CLAUDIO 1981 ASD ATLETICA COSTA D'ARGENTO 01 11 06 05:28
19 19 masch 2 A m MESCHINI ANDREA 1989 LIBERO 01 11 36 05:30
20 20 masch
1 D m
CHIEZZI ALESSANDRO 1966 A.S.D. POL. CHIANCIANO 01 12 53 05:36
21 21 masch 2 D m NANNINI GIORGIO 1966 ATLETICA ISOLA D'ELBA 01 12 58 05:36
22 22 masch 1 E m FUSI MAURO 1951 BANCA MONTE DEI PASCHI DI SIENA 01 13 07 05:37
23 23 masch 9 B m MASSANDRINI CHRISTIAN 1980 LIBERO 01 14 02 05:41
24 24 masch 2 E m FORZINI EGISTO 1956 ATLETICA PONTICINO 01 14 51 05:45
25 25 masch 3 D m MARIN FRANCESCO 1966 LIBERO 01 15 07 05:46
26 1 femm
1 B f
TOGNINI SARA 1981 ASD LA GALLA PONTEDERA ATL. 01 15 17 05:47
27 26 masch 10 C m ROSSI GIACOMO 1977 G. POD. I RISORTI BUONCONVENTO A.S.D 01 15 17 05:47
28 27 masch 11 C m BRUSTENGHI LUCA 1971 RUN CARD 01 15 22 05:47
29 28 masch 4 D m MATACERA LUCIANO 1962 ELBA RUNNERS 01 16 16 05:51
30 2 femm
1 D f
LACRIMINI PATRIZIA 1967 MARATHON CLUB CITTA' DI CASTEL 01 16 25 05:52
31 29 masch 12 C m AZZOLINI FRANCESCO 1970 S.S.D.S. MENS SANA IN CORPORE SANO 01 16 34 05:53
32 30 masch 5 D m FALCONI MIRKO 1967 A.S.D. TEAM MARATHON BIKE 01 16 39 05:53
33 3 femm
1 C f
ROSSI VALENTINA 1971 ATLETICA AVIS SANSEPOLCRO 01 16 55 05:54
34 4 femm 2 C f BRUSTENGHI CHIARA 1972 RUN CARD 01 17 54 05:59
35 31 masch 13 C m CICALI ROBERTO 1971 A.S.D. G.S. CAPPUCCINI 1972 01 18 02 06:00
36 5 femm
1 A f
DANESI CARLOTTA 1991 RUN CARD 01 19 00 06:04
37 32 masch 14 C m FURI LAMBERTO 1971 A.S.D. SIENARUNNERS 01 19 03 06:04
38 33 masch 3 A m DE ANGELIS GIACOMO 1990 A.S.D. LA CHIANINA 01 19 07 06:05
39 6 femm 3 C f COLANTUONO DEBORA 1975 IL PONTE SCANDICCI A.S.D. PODISTICA 01 19 09 06:05
40 34 masch 15 C m CHELLINI DANIELE 1971 LIBERO 01 19 19 06:06
41 35 masch 16 C m GIULIANI ALESSANDRO 1969 TANA DEI LUPI 01 19 22 06:06
42 7 femm 2 B f STOPPA MADDALENA 1982 NAVE U. S. A.S.D. 01 19 38 06:07
43 36 masch 6 D m LUPI MICHELE 1967 ASS.POD.MARCIATORI MARLIESI 01 19 43 06:07
44 8 femm 4 C f CAPITANI LUCIA 1971 ATL. CASTIGLIONESE 01 20 06 06:09
45 37 masch 17 C m COSTANZO ETTORE 1971 ASD ATLETICA COSTA D'ARGENTO 01 20 08 06:09
46 38 masch 7 D m FINESCHI ROBERTO 1961 A.S.D. IL GREGGE RIBELLE 01 20 37 06:12
47 39 masch 10 B m MORETTI CESARE 1980 ASD MONTEROSI RUN 01 20 46 06:12
48 40 masch 18 C m GIANSANTI FABIO 1978 A.S.D. TEAM MARATHON BIKE 01 20 46 06:12
49 9 femm 3 B f CHIS MARINELLA 1980 A.S.D. TEAM MARATHON BIKE 01 20 46 06:12
50 41 masch 8 D m TANZINI SILVANO 1967 C.R. BANCA MONTE DEI PASCHI DI SIENA 01 20 57 06:13
51 10 femm 4 B f SPRUGNOLI ELISA 1980 A.S.D. IL GREGGE RIBELLE 01 21 16 06:15
52 42 masch 19 C m BOGNI MIRKO 1969 A.S.D. POL. CHIANCIANO 01 21 45 06:17
53 43 masch 9 D m BARONE MAURIZIO 1961 A.S.D. IL CAMPANILE 01 22 40 06:21
54 44 masch 20 C m TANGANELLI DANIELE 1970 A.S.D. TEAM MARATHON BIKE 01 23 06 06:23
55 45 masch 11 B m DAL GALLO MARCO 1979 LIBERO 01 24 16 06:28
56 11 femm 2 D f GUARGUAGLINI MARINELLA 1968 ATL. CASTIGLIONESE 01 24 31 06:30
57 46 masch 21 C m POGGIANI GIULIO 1977 A.S.D. TEAM MARATHON BIKE 01 24 31 06:30
58 47 masch 12 B m GOZZI DANIELE 1984 LIBERO 01 24 55 06:31
59 12 femm 3 D f POLVANI CAROLINA 1962 A.S.D. TEAM MARATHON BIKE 01 25 08 06:32
60 13 femm 5 C f DEL BUE CATERINA 1971 ATL.SANGIOVANNESE 1967 01 25 11 06:33
61 48 masch 22 C m TANTURLI MARZIO 1969 A.S.D. VITERBO RUNNERS 01 25 33 06:34
62 49 masch 23 C m ZARDO MASSIMO 1971 LIBERO 01 25 36 06:35
63 14 femm 6 C f NERI CARLA 1975 TANA DEI LUPI 01 25 41 06:35
64 50 masch 10 D m SAMPIERI FABIO 1966 A.S.D. G.S. CAPPUCCINI 1972 01 25 47 06:35
65 51 masch 24 C m PIZZOLANTE VINCENZO 1971 LIBERO 01 25 59 06:36
66 52 masch 3 E m ARTINI UBALDO 1952 A.S.D. G.S. CAPPUCCINI 1972 01 26 31 06:39
67 53 masch 13 B m TORELLI ALESSANDRO 1987 LIBERO 01 26 53 06:40
68 54 masch 11 D m SFODERA LEONARDO 1966 L'UNATICI ELLERA CORCIANO ASD 01 26 58 06:41
69 55 masch 1 F m PIERATTELLI LUIGI 1947 A.S.D. G.S. CAPPUCCINI 1972 01 27 08 06:42
70 56 masch 12 D m BARBANI ALBERTO 1968 IL PONTE SCANDICCI A.S.D. PODISTICA 01 27 10 06:42
71 57 masch 25 C m MARCANTONINI ANDREA 1969 RUN CARD 01 27 45 06:44
72 58 masch 26 C m PASQUINI ALESSANDRO 1976 ASD ORVIETO RUNNERS 01 28 09 06:46
73 15 femm 7 C f BAILA LONGO ANNA TERESA 1977 LIBERO 01 28 26 06:48
74 59 masch 27 C m FINI RICCARDO 1969 A.S.D. TEAM MARATHON BIKE 01 28 50 06:49
75 60 masch 13 D m MACCARINI FABIO 1963 A.S.D. TEAM MARATHON BIKE 01 28 56 06:50
76 61 masch 14 D m PAPALINI MIRCO 1965 ATLETICA ISOLA D'ELBA 01 29 10 06:51
77 62 masch 28 C m PAPALINI GIAMPAOLO 1975 A.S.D. TEAM MARATHON BIKE 01 30 43 06:58
78 63 masch 15 D m LORENZONI MARCO 1963 RUN CARD 01 31 12 07:00
79 64 masch 29 C m GOZZI PAOLO 1971 RUN CARD 01 31 14 07:01
80 16 femm 4 D f MORETTI GIULIANA 1961 RUN CARD 01 31 14 07:01
81 17 femm 8 C f LOVERA ELENA AGNESE 1969 ASS. SPORT DIL. VIVI SIENA 01 31 25 07:01
82 18 femm 9 C f GALELLA TIZIANA 1974 A.S.D. TEAM MARATHON BIKE 01 31 26 07:01
83 65 masch 4 E m DANESI CARLO 1958 RUN CARD 01 31 59 07:04
84 19 femm 2 A f ABRATI LARA 1989 LIBERO 01 32 05 07:04
85 66 masch 30 C m MAZZARINI GIULIANO 1974 UPR MONTEMARCIANO ASD 01 32 23 07:06
86 20 femm 5 B f BRUNELLI CECILIA 1980 A.S.D. G.S. CAPPUCCINI 1972 01 33 24 07:11
87 21 femm 10 C f GECCHELE GIULIA 1978 C.S. OLIMPIA POGGIO AL VENTO A.S.D. 01 33 25 07:11
88 22 femm 11 C f PANONI DANIELA 1970 TRAIL RUNNING PROJECT 01 33 32 07:11
89 23 femm 6 B f CIOFFI ZULEIMA 1983 A.S.D. TEAM MARATHON BIKE 01 33 43 07:12
90 67 masch 31 C m SEMPLICI EMANUELE 1976 RUN CARD 01 34 08 07:14
91 24 femm 5 D f BONARI LAURA 1959 A.S.D. TEAM MARATHON BIKE 01 34 09 07:14
92 68 masch 16 D m BETTINI ALESSANDRO 1964 A.S.D. ROLLING DREAMERS 01 34 22 07:15
93 25 femm 12 C f PALAZZOLI LUCIA 1969 LIBERO 01 34 24 07:15
94 69 masch 17 D m CAVANI GRAZIANO 1964 RUN CARD 01 34 26 07:15
95 26 femm 13 C f MECHINI RAFFAELLA 1972 LIBERO 01 34 42 07:17
96 27 femm 14 C f GIANNELLI CATERINA 1973 LIBERO 01 34 42 07:17
97 70 masch 32 C m DE BERNARDI ENRICO 1969 A.S.D. POL. CHIANCIANO 01 34 53 07:17
98 28 femm 7 B f MENCHINI FABIANA 1988 LIBERO 01 35 08 07:19
99 29 femm 8 B f PAPA VALENTINA 1981 CIRC. DIP. UNIVERSITA' DI FIRENZE 01 35 50 07:22
100 71 masch 33 C m ALVISI FABIO 1976 RUN CARD 01 36 06 07:23
101 30 femm 9 B f PERSANO ALESSANDRA 1988 RUN CARD 01 36 07 07:23
102 72 masch 14 B m PARIS GIOVANNI 1979 LIBERO 01 36 54 07:27
103 31 femm 10 B f CARLI CLAUDIA 1980 MONDO VERTIGINE A.S.D. 01 37 35 07:30
104 73 masch 18 D m MORABITO BRUNO 1965 RUN CARD 01 37 58 07:32
105 32 femm 15 C f MARCHETTI FRANCESCA 1971 A.S.D. MONTALCINO TRAIL 01 38 44 07:35
106 74 masch 15 B m NOGUERA FELIPE 1983 RUN CARD 01 41 55 07:50
107 75 masch 34 C m CIOFFI NICOLA GIANFRANCO 1970 RUN CARD 01 41 59 07:50
108 33 femm 16 C f D'ANTONIO ILARIA 1970 PODISTICA SOLIDARIETA' 01 42 06 07:51
109 34 femm 11 B f COSTABILE ANNA 1981 IL PONTE SCANDICCI A.S.D. PODISTICA 01 42 24 07:52
110 76 masch 19 D m NERBOSI FABIO 1965 RUN CARD 01 42 24 07:52
111 35 femm 6 D f ROSSI ELENA 1968 A.S.D. TEAM MARATHON BIKE 01 42 29 07:52
112 77 masch 5 E m SMYTH PHILLIP 1952 LIBERO 01 42 41 07:53
113 78 masch 6 E m CENNI MARCO 1952 C.R. BANCA MONTE DEI PASCHI DI SIENA 01 43 25 07:57
114 79 masch 7 E m LENTINI CAMPALLEGIO PAOLO 1956 A.S.D. TEAM MARATHON BIKE 01 43 28 07:57
115 80 masch 20 D m MONTEMAGGI GABRIELE 1966 A.S.D. TEAM MARATHON BIKE 01 44 13 08:00
116 81 masch 35 C m LOACKER FRANZ JOSEF 1976 LIBERO 01 44 50 08:03
117 37 femm 17 C f PONTUALE ELISABETTA 1969 A.S.D. VITERBO RUNNERS 01 45 35 08:07
118 36 femm 7 D f GUERCIO PAOLA 1964 LIBERO 01 45 35 08:07
119 38 femm 8 D f GIAMMAROLI PAOLA 1961 LIBERO 01 45 35 08:07
120 82 masch 8 E m TENTI GIUSEPPE 1957 LIBERO 01 45 35 08:07
121 39 femm 9 D f CALIENTO LETIZIA 1968 LIBERO 01 45 36 08:07
122 83 masch 21 D m NEUMAIER ANDREAS 1966 LIBERO 01 46 31 08:11
123 84 masch 36 C m BIZZARRI SIMONE 1975 LIBERO 01 46 43 08:12
124 40 femm 18 C f BRUNETTI MARIANNA 1977 LIBERO 01 47 27 08:15
125 41 femm 10 D f ROMAGNOLI BARBARA 1967 AMICA ASD - I SSSIAN 01 48 01 08:18
126 85 masch 9 E m DUCCESCHI GIOVANNI 1958 A.S.C.D. SILVANO FEDI 01 48 20 08:19
127 42 femm 19 C f COLOMBO BARBARA 1971 ASD 4 STORMO 01 49 14 08:24
128 43 femm 20 C f FRACCASCIA FLORINDA 1974 LIBERO 01 49 37 08:25
129 44 femm 21 C f SCAFETTA LAURA 1978 A.S.D. MONTALCINO TRAIL 01 49 37 08:25
130 86 masch 37 C m MARINI IGOR 1970 LIBERO 01 49 37 08:25
131 45 femm 12 B f BREEN FRIEDA 1983 LIBERO 01 49 42 08:26
132 87 masch 16 B m COLLINS MANGUS 1984 LIBERO 01 49 43 08:26
133 89 masch 17 B m TERRIBILE MARCO 1981 ASD TTM TRAIL TEAM MAREMMA 01 51 29 08:34
134 88 masch 38 C m DE ROSA FABIO 1977 ASD TTM TRAIL TEAM MAREMMA 01 51 29 08:34
135 46 femm 22 C f QUESTORI ROBERTA 1973 MUGELLO OUTDOOR ASD 01 52 15 08:38
136 47 femm 11 D f MAIANI PAOLA 1967 MUGELLO OUTDOOR ASD 01 52 24 08:38
137 48 femm 23 C f RECALDINI FRANCESCA 1976 LIBERO 01 56 45 08:58
138 90 masch 22 D m DE PASQUALE MARIO 1959 C.U.S. BOLOGNA A.S.D. 01 56 55 08:59
139 50 femm 24 C f PEZZOLI EMANUELA 1976 LIBERO 02 01 12 09:19
140 49 femm 3 A f CAMBIANICA MONICA 1993 LIBERO 02 01 12 09:19
141 51 femm 25 C f LINSCOTT TINA 1972 LIBERO 02 02 26 09:25
142 91 masch 10 E m BELLUCCI LORENZO 1950 A.S.D. IL CAMPANILE 02 03 30 09:29
143 92 masch 23 D m SARSBY JULIAN 1968 LIBERO 02 04 26 09:34
144 52 femm 26 C f IAVARAZZO GIUSEPPINA 1978 TEAM MUD & SNOW ASD 02 04 55 09:36
145 53 femm 12 D f PAGLIAI ROBERTA 1967 G.P. CODOGNO 82 02 05 04 09:37
146 54 femm 27 C f BARDETTI SILVIA 1974 G.P. CODOGNO 82 02 05 04 09:37
147 55 femm
1 E f
MAZZETTA ANNA 1957 A.S.D. ATLETICA VITA 02 06 27 09:43
148 56 femm 13 D f BATTILANI LORELLA 1961 MADONNINA PODISMO G.S. ASD 02 06 51 09:45
149 57 femm 28 C f MARAGOS CYNTHIA 1970 LIBERO 02 31 01 11:36
150 58 femm 14 D f OSTINATO MARIA 1966 CAIVANO RUNNERS 02 44 22 12:38
151 93 masch 11 E m PUGLIESE ANTONIO 1958 CAIVANO RUNNERS 02 44 42 12:40
152 59 femm 29 C f VETRUGNO ELENA 1970 A.S.D. POL. CHIANCIANO 02 55 42 13:30
www . g i u s e p p e r o s a t i . n e t
l a  m e m o r i a  d e l l e  t u e  c o r s e
e qualcosa di più…